sensor_id;sensor_type;location;lat;lon;timestamp;P1;durP1;ratioP1;P2;durP2;ratioP2
61200;SDS011;47065;52.898;6.992;2022-08-05T00:01:56;13.98;;;8.32;;
61200;SDS011;47065;52.898;6.992;2022-08-05T00:04:21;10.90;;;7.47;;
61200;SDS011;47065;52.898;6.992;2022-08-05T00:06:47;13.98;;;8.27;;
61200;SDS011;47065;52.898;6.992;2022-08-05T00:09:13;20.67;;;9.40;;
61200;SDS011;47065;52.898;6.992;2022-08-05T00:11:38;12.52;;;8.10;;
61200;SDS011;47065;52.898;6.992;2022-08-05T00:14:04;14.23;;;8.68;;
61200;SDS011;47065;52.898;6.992;2022-08-05T00:16:30;18.92;;;9.95;;
61200;SDS011;47065;52.898;6.992;2022-08-05T00:18:55;15.63;;;9.23;;
61200;SDS011;47065;52.898;6.992;2022-08-05T00:21:21;14.00;;;9.30;;
61200;SDS011;47065;52.898;6.992;2022-08-05T00:23:47;16.83;;;10.35;;
61200;SDS011;47065;52.898;6.992;2022-08-05T00:26:13;15.70;;;9.63;;
61200;SDS011;47065;52.898;6.992;2022-08-05T00:28:39;16.65;;;9.60;;
61200;SDS011;47065;52.898;6.992;2022-08-05T00:31:06;14.13;;;11.10;;
61200;SDS011;47065;52.898;6.992;2022-08-05T00:33:32;17.38;;;9.48;;
61200;SDS011;47065;52.898;6.992;2022-08-05T00:35:59;16.77;;;9.73;;
61200;SDS011;47065;52.898;6.992;2022-08-05T00:38:25;23.40;;;12.10;;
61200;SDS011;47065;52.898;6.992;2022-08-05T00:40:51;23.67;;;11.70;;
61200;SDS011;47065;52.898;6.992;2022-08-05T00:43:19;18.02;;;11.50;;
61200;SDS011;47065;52.898;6.992;2022-08-05T00:45:46;21.80;;;11.77;;
61200;SDS011;47065;52.898;6.992;2022-08-05T00:48:21;14.70;;;10.20;;
61200;SDS011;47065;52.898;6.992;2022-08-05T00:50:48;12.48;;;9.10;;
61200;SDS011;47065;52.898;6.992;2022-08-05T00:53:16;16.55;;;8.77;;
61200;SDS011;47065;52.898;6.992;2022-08-05T00:55:46;11.75;;;7.93;;
61200;SDS011;47065;52.898;6.992;2022-08-05T00:58:13;12.27;;;8.15;;
61200;SDS011;47065;52.898;6.992;2022-08-05T01:00:41;13.68;;;9.30;;
61200;SDS011;47065;52.898;6.992;2022-08-05T01:03:07;15.95;;;9.30;;
61200;SDS011;47065;52.898;6.992;2022-08-05T01:05:34;13.48;;;9.10;;
61200;SDS011;47065;52.898;6.992;2022-08-05T01:08:00;13.52;;;8.93;;
61200;SDS011;47065;52.898;6.992;2022-08-05T01:10:27;15.18;;;8.90;;
61200;SDS011;47065;52.898;6.992;2022-08-05T01:12:56;15.85;;;9.32;;
61200;SDS011;47065;52.898;6.992;2022-08-05T01:15:28;11.88;;;7.97;;
61200;SDS011;47065;52.898;6.992;2022-08-05T01:18:01;17.80;;;9.20;;
61200;SDS011;47065;52.898;6.992;2022-08-05T01:28:15;15.15;;;9.00;;
61200;SDS011;47065;52.898;6.992;2022-08-05T01:30:55;21.33;;;9.57;;
61200;SDS011;47065;52.898;6.992;2022-08-05T01:33:50;16.95;;;9.27;;
61200;SDS011;47065;52.898;6.992;2022-08-05T01:36:24;14.25;;;9.38;;
61200;SDS011;47065;52.898;6.992;2022-08-05T01:38:56;10.30;;;8.82;;
61200;SDS011;47065;52.898;6.992;2022-08-05T01:41:23;14.40;;;9.38;;
61200;SDS011;47065;52.898;6.992;2022-08-05T01:43:51;14.55;;;10.07;;
61200;SDS011;47065;52.898;6.992;2022-08-05T01:46:19;13.07;;;9.45;;
61200;SDS011;47065;52.898;6.992;2022-08-05T01:48:45;16.20;;;10.52;;
61200;SDS011;47065;52.898;6.992;2022-08-05T01:51:12;11.25;;;8.57;;
61200;SDS011;47065;52.898;6.992;2022-08-05T01:53:40;11.70;;;8.55;;
61200;SDS011;47065;52.898;6.992;2022-08-05T01:56:06;17.33;;;8.98;;
61200;SDS011;47065;52.898;6.992;2022-08-05T01:58:35;10.57;;;8.30;;
61200;SDS011;47065;52.898;6.992;2022-08-05T02:01:02;13.82;;;9.10;;
61200;SDS011;47065;52.898;6.992;2022-08-05T02:03:36;12.07;;;7.97;;
61200;SDS011;47065;52.898;6.992;2022-08-05T02:06:05;11.02;;;8.25;;
61200;SDS011;47065;52.898;6.992;2022-08-05T02:08:32;15.05;;;9.20;;
61200;SDS011;47065;52.898;6.992;2022-08-05T02:10:59;13.63;;;8.60;;
61200;SDS011;47065;52.898;6.992;2022-08-05T02:13:34;15.20;;;9.65;;
61200;SDS011;47065;52.898;6.992;2022-08-05T02:16:17;14.80;;;9.90;;
61200;SDS011;47065;52.898;6.992;2022-08-05T02:18:48;11.32;;;8.60;;
61200;SDS011;47065;52.898;6.992;2022-08-05T02:21:35;17.95;;;10.48;;
61200;SDS011;47065;52.898;6.992;2022-08-05T02:24:08;12.82;;;9.50;;
61200;SDS011;47065;52.898;6.992;2022-08-05T02:26:45;11.85;;;8.20;;
61200;SDS011;47065;52.898;6.992;2022-08-05T02:29:15;11.23;;;8.57;;
61200;SDS011;47065;52.898;6.992;2022-08-05T02:31:45;15.75;;;9.90;;
61200;SDS011;47065;52.898;6.992;2022-08-05T02:34:12;12.18;;;9.00;;
61200;SDS011;47065;52.898;6.992;2022-08-05T02:36:41;16.05;;;10.07;;
61200;SDS011;47065;52.898;6.992;2022-08-05T02:39:12;10.65;;;7.60;;
61200;SDS011;47065;52.898;6.992;2022-08-05T02:41:41;13.85;;;8.77;;
61200;SDS011;47065;52.898;6.992;2022-08-05T02:44:09;17.42;;;8.35;;
61200;SDS011;47065;52.898;6.992;2022-08-05T02:46:38;14.27;;;9.18;;
61200;SDS011;47065;52.898;6.992;2022-08-05T02:49:05;14.18;;;9.65;;
61200;SDS011;47065;52.898;6.992;2022-08-05T02:51:32;9.23;;;8.10;;
61200;SDS011;47065;52.898;6.992;2022-08-05T02:54:01;13.98;;;9.45;;
61200;SDS011;47065;52.898;6.992;2022-08-05T02:56:27;13.63;;;8.63;;
61200;SDS011;47065;52.898;6.992;2022-08-05T02:58:53;13.77;;;8.88;;
61200;SDS011;47065;52.898;6.992;2022-08-05T03:01:22;13.55;;;9.82;;
61200;SDS011;47065;52.898;6.992;2022-08-05T03:03:49;16.83;;;9.82;;
61200;SDS011;47065;52.898;6.992;2022-08-05T03:06:18;11.18;;;9.02;;
61200;SDS011;47065;52.898;6.992;2022-08-05T03:08:46;12.63;;;8.95;;
61200;SDS011;47065;52.898;6.992;2022-08-05T03:11:16;14.40;;;9.95;;
61200;SDS011;47065;52.898;6.992;2022-08-05T03:13:43;13.57;;;10.43;;
61200;SDS011;47065;52.898;6.992;2022-08-05T03:16:09;12.70;;;10.70;;
61200;SDS011;47065;52.898;6.992;2022-08-05T03:18:34;15.05;;;10.43;;
61200;SDS011;47065;52.898;6.992;2022-08-05T03:21:00;18.92;;;10.27;;
61200;SDS011;47065;52.898;6.992;2022-08-05T03:23:25;13.88;;;9.93;;
61200;SDS011;47065;52.898;6.992;2022-08-05T03:25:51;17.35;;;10.02;;
61200;SDS011;47065;52.898;6.992;2022-08-05T03:28:18;14.10;;;9.65;;
61200;SDS011;47065;52.898;6.992;2022-08-05T03:30:44;14.60;;;10.95;;
61200;SDS011;47065;52.898;6.992;2022-08-05T03:33:12;12.10;;;9.65;;
61200;SDS011;47065;52.898;6.992;2022-08-05T03:35:37;16.65;;;11.13;;
61200;SDS011;47065;52.898;6.992;2022-08-05T03:38:03;17.73;;;12.73;;
61200;SDS011;47065;52.898;6.992;2022-08-05T03:40:29;19.58;;;12.57;;
61200;SDS011;47065;52.898;6.992;2022-08-05T03:42:55;18.63;;;12.27;;
61200;SDS011;47065;52.898;6.992;2022-08-05T03:45:20;20.35;;;13.30;;
61200;SDS011;47065;52.898;6.992;2022-08-05T03:47:46;14.60;;;11.10;;
61200;SDS011;47065;52.898;6.992;2022-08-05T03:50:11;17.83;;;11.63;;
61200;SDS011;47065;52.898;6.992;2022-08-05T03:52:57;18.90;;;12.50;;
61200;SDS011;47065;52.898;6.992;2022-08-05T03:55:48;15.25;;;11.30;;
61200;SDS011;47065;52.898;6.992;2022-08-05T03:58:17;16.70;;;10.57;;
61200;SDS011;47065;52.898;6.992;2022-08-05T04:00:46;19.35;;;10.85;;
61200;SDS011;47065;52.898;6.992;2022-08-05T04:03:13;15.73;;;11.02;;
61200;SDS011;47065;52.898;6.992;2022-08-05T04:05:40;18.52;;;10.10;;
61200;SDS011;47065;52.898;6.992;2022-08-05T04:08:08;16.27;;;9.95;;
61200;SDS011;47065;52.898;6.992;2022-08-05T04:10:35;17.17;;;9.48;;
61200;SDS011;47065;52.898;6.992;2022-08-05T04:13:01;11.43;;;9.27;;
61200;SDS011;47065;52.898;6.992;2022-08-05T04:15:27;18.08;;;10.65;;
61200;SDS011;47065;52.898;6.992;2022-08-05T04:17:54;18.30;;;10.98;;
61200;SDS011;47065;52.898;6.992;2022-08-05T04:20:20;14.68;;;11.27;;
61200;SDS011;47065;52.898;6.992;2022-08-05T04:22:46;17.50;;;11.05;;
61200;SDS011;47065;52.898;6.992;2022-08-05T04:25:12;19.73;;;12.07;;
61200;SDS011;47065;52.898;6.992;2022-08-05T04:27:38;15.57;;;11.77;;
61200;SDS011;47065;52.898;6.992;2022-08-05T04:30:04;16.27;;;11.70;;
61200;SDS011;47065;52.898;6.992;2022-08-05T04:32:30;11.52;;;10.20;;
61200;SDS011;47065;52.898;6.992;2022-08-05T04:34:56;19.00;;;11.88;;
61200;SDS011;47065;52.898;6.992;2022-08-05T04:37:21;17.20;;;10.98;;
61200;SDS011;47065;52.898;6.992;2022-08-05T04:39:47;15.85;;;9.23;;
61200;SDS011;47065;52.898;6.992;2022-08-05T04:42:13;13.25;;;10.45;;
61200;SDS011;47065;52.898;6.992;2022-08-05T04:44:39;13.75;;;10.75;;
61200;SDS011;47065;52.898;6.992;2022-08-05T04:47:05;13.57;;;9.07;;
61200;SDS011;47065;52.898;6.992;2022-08-05T04:49:31;14.88;;;8.07;;
61200;SDS011;47065;52.898;6.992;2022-08-05T04:51:57;12.55;;;8.70;;
61200;SDS011;47065;52.898;6.992;2022-08-05T04:54:22;15.48;;;9.13;;
61200;SDS011;47065;52.898;6.992;2022-08-05T04:56:51;15.52;;;10.15;;
61200;SDS011;47065;52.898;6.992;2022-08-05T04:59:17;14.27;;;9.73;;
61200;SDS011;47065;52.898;6.992;2022-08-05T05:01:44;18.10;;;10.73;;
61200;SDS011;47065;52.898;6.992;2022-08-05T05:04:10;11.10;;;9.23;;
61200;SDS011;47065;52.898;6.992;2022-08-05T05:06:36;11.43;;;8.63;;
61200;SDS011;47065;52.898;6.992;2022-08-05T05:09:02;15.05;;;8.38;;
61200;SDS011;47065;52.898;6.992;2022-08-05T05:11:28;12.20;;;10.38;;
61200;SDS011;47065;52.898;6.992;2022-08-05T05:13:54;11.32;;;9.25;;
61200;SDS011;47065;52.898;6.992;2022-08-05T05:16:19;11.65;;;8.57;;
61200;SDS011;47065;52.898;6.992;2022-08-05T05:18:45;12.75;;;8.45;;
61200;SDS011;47065;52.898;6.992;2022-08-05T05:21:11;14.30;;;8.77;;
61200;SDS011;47065;52.898;6.992;2022-08-05T05:23:36;11.68;;;8.82;;
61200;SDS011;47065;52.898;6.992;2022-08-05T05:26:02;17.15;;;9.57;;
61200;SDS011;47065;52.898;6.992;2022-08-05T05:28:28;14.40;;;10.05;;
61200;SDS011;47065;52.898;6.992;2022-08-05T05:30:54;11.43;;;8.35;;
61200;SDS011;47065;52.898;6.992;2022-08-05T05:33:20;16.70;;;9.75;;
61200;SDS011;47065;52.898;6.992;2022-08-05T05:35:45;11.30;;;8.73;;
61200;SDS011;47065;52.898;6.992;2022-08-05T05:38:12;11.30;;;8.95;;
61200;SDS011;47065;52.898;6.992;2022-08-05T05:40:37;11.35;;;8.20;;
61200;SDS011;47065;52.898;6.992;2022-08-05T05:43:03;12.13;;;9.85;;
61200;SDS011;47065;52.898;6.992;2022-08-05T05:45:29;11.73;;;8.18;;
61200;SDS011;47065;52.898;6.992;2022-08-05T05:47:58;13.32;;;9.55;;
61200;SDS011;47065;52.898;6.992;2022-08-05T05:50:24;10.38;;;8.93;;
61200;SDS011;47065;52.898;6.992;2022-08-05T05:52:49;8.70;;;7.63;;
61200;SDS011;47065;52.898;6.992;2022-08-05T05:55:15;10.02;;;7.28;;
61200;SDS011;47065;52.898;6.992;2022-08-05T05:57:42;14.68;;;8.25;;
61200;SDS011;47065;52.898;6.992;2022-08-05T06:00:10;8.60;;;7.05;;
61200;SDS011;47065;52.898;6.992;2022-08-05T06:02:40;13.00;;;7.47;;
61200;SDS011;47065;52.898;6.992;2022-08-05T06:05:06;9.25;;;6.88;;
61200;SDS011;47065;52.898;6.992;2022-08-05T06:07:33;13.70;;;6.85;;
61200;SDS011;47065;52.898;6.992;2022-08-05T06:09:59;14.52;;;7.28;;
61200;SDS011;47065;52.898;6.992;2022-08-05T06:12:25;8.23;;;7.07;;
61200;SDS011;47065;52.898;6.992;2022-08-05T06:14:50;8.73;;;6.10;;
61200;SDS011;47065;52.898;6.992;2022-08-05T06:17:16;9.52;;;6.38;;
61200;SDS011;47065;52.898;6.992;2022-08-05T06:19:41;14.30;;;5.68;;
61200;SDS011;47065;52.898;6.992;2022-08-05T06:22:07;7.68;;;5.85;;
61200;SDS011;47065;52.898;6.992;2022-08-05T06:24:33;11.23;;;6.63;;
61200;SDS011;47065;52.898;6.992;2022-08-05T06:27:00;11.18;;;6.45;;
61200;SDS011;47065;52.898;6.992;2022-08-05T06:29:27;9.25;;;7.25;;
61200;SDS011;47065;52.898;6.992;2022-08-05T06:31:52;12.63;;;6.57;;
61200;SDS011;47065;52.898;6.992;2022-08-05T06:34:18;9.02;;;7.20;;
61200;SDS011;47065;52.898;6.992;2022-08-05T06:36:44;9.27;;;6.88;;
61200;SDS011;47065;52.898;6.992;2022-08-05T06:39:09;9.32;;;5.65;;
61200;SDS011;47065;52.898;6.992;2022-08-05T06:41:35;6.78;;;6.10;;
61200;SDS011;47065;52.898;6.992;2022-08-05T06:44:01;8.85;;;5.35;;
61200;SDS011;47065;52.898;6.992;2022-08-05T06:46:26;9.38;;;5.43;;
61200;SDS011;47065;52.898;6.992;2022-08-05T06:48:52;7.15;;;6.45;;
61200;SDS011;47065;52.898;6.992;2022-08-05T06:51:18;7.13;;;5.35;;
61200;SDS011;47065;52.898;6.992;2022-08-05T06:53:43;7.90;;;4.80;;
61200;SDS011;47065;52.898;6.992;2022-08-05T06:56:09;5.63;;;4.82;;
61200;SDS011;47065;52.898;6.992;2022-08-05T06:58:35;8.23;;;5.07;;
61200;SDS011;47065;52.898;6.992;2022-08-05T07:01:00;8.48;;;5.00;;
61200;SDS011;47065;52.898;6.992;2022-08-05T07:03:27;7.68;;;5.00;;
61200;SDS011;47065;52.898;6.992;2022-08-05T07:05:54;6.65;;;6.05;;
61200;SDS011;47065;52.898;6.992;2022-08-05T07:08:20;7.03;;;4.47;;
61200;SDS011;47065;52.898;6.992;2022-08-05T07:10:49;8.70;;;4.70;;
61200;SDS011;47065;52.898;6.992;2022-08-05T07:13:15;7.72;;;4.80;;
61200;SDS011;47065;52.898;6.992;2022-08-05T07:16:00;5.13;;;4.10;;
61200;SDS011;47065;52.898;6.992;2022-08-05T07:21:10;5.05;;;4.47;;
61200;SDS011;47065;52.898;6.992;2022-08-05T07:23:36;4.10;;;2.80;;
61200;SDS011;47065;52.898;6.992;2022-08-05T07:26:02;9.90;;;3.85;;
61200;SDS011;47065;52.898;6.992;2022-08-05T07:28:28;5.57;;;2.83;;
61200;SDS011;47065;52.898;6.992;2022-08-05T07:30:54;6.32;;;2.50;;
61200;SDS011;47065;52.898;6.992;2022-08-05T07:33:20;5.28;;;3.30;;
61200;SDS011;47065;52.898;6.992;2022-08-05T07:35:45;4.50;;;2.47;;
61200;SDS011;47065;52.898;6.992;2022-08-05T07:38:12;4.97;;;3.13;;
61200;SDS011;47065;52.898;6.992;2022-08-05T07:40:41;8.13;;;3.25;;
61200;SDS011;47065;52.898;6.992;2022-08-05T07:43:08;3.75;;;3.38;;
61200;SDS011;47065;52.898;6.992;2022-08-05T07:45:34;6.95;;;3.85;;
61200;SDS011;47065;52.898;6.992;2022-08-05T07:48:00;6.72;;;3.00;;
61200;SDS011;47065;52.898;6.992;2022-08-05T07:50:26;3.08;;;2.70;;
61200;SDS011;47065;52.898;6.992;2022-08-05T07:52:51;4.35;;;2.67;;
61200;SDS011;47065;52.898;6.992;2022-08-05T07:55:17;7.00;;;3.15;;
61200;SDS011;47065;52.898;6.992;2022-08-05T07:57:43;2.63;;;2.42;;
61200;SDS011;47065;52.898;6.992;2022-08-05T08:00:08;3.65;;;2.58;;
61200;SDS011;47065;52.898;6.992;2022-08-05T08:02:35;4.22;;;2.22;;
61200;SDS011;47065;52.898;6.992;2022-08-05T08:05:00;3.17;;;2.00;;
61200;SDS011;47065;52.898;6.992;2022-08-05T08:07:26;3.92;;;2.45;;
61200;SDS011;47065;52.898;6.992;2022-08-05T08:09:52;3.50;;;2.28;;
61200;SDS011;47065;52.898;6.992;2022-08-05T08:12:18;2.08;;;1.63;;
61200;SDS011;47065;52.898;6.992;2022-08-05T08:14:45;3.88;;;1.83;;
61200;SDS011;47065;52.898;6.992;2022-08-05T08:17:10;1.92;;;1.63;;
61200;SDS011;47065;52.898;6.992;2022-08-05T08:19:36;4.75;;;1.67;;
61200;SDS011;47065;52.898;6.992;2022-08-05T08:22:03;2.50;;;2.00;;
61200;SDS011;47065;52.898;6.992;2022-08-05T08:24:29;4.38;;;1.50;;
61200;SDS011;47065;52.898;6.992;2022-08-05T08:26:55;6.75;;;1.80;;
61200;SDS011;47065;52.898;6.992;2022-08-05T08:29:20;4.22;;;1.88;;
61200;SDS011;47065;52.898;6.992;2022-08-05T08:31:46;3.30;;;1.60;;
61200;SDS011;47065;52.898;6.992;2022-08-05T08:34:12;5.50;;;1.50;;
61200;SDS011;47065;52.898;6.992;2022-08-05T08:36:38;1.85;;;1.30;;
61200;SDS011;47065;52.898;6.992;2022-08-05T08:39:04;1.38;;;0.77;;
61200;SDS011;47065;52.898;6.992;2022-08-05T08:41:30;3.25;;;1.10;;
61200;SDS011;47065;52.898;6.992;2022-08-05T08:43:58;3.10;;;1.23;;
61200;SDS011;47065;52.898;6.992;2022-08-05T08:46:26;3.03;;;1.10;;
61200;SDS011;47065;52.898;6.992;2022-08-05T08:48:55;4.40;;;1.33;;
61200;SDS011;47065;52.898;6.992;2022-08-05T08:51:22;1.70;;;1.15;;
61200;SDS011;47065;52.898;6.992;2022-08-05T08:53:48;3.00;;;1.00;;
61200;SDS011;47065;52.898;6.992;2022-08-05T08:56:15;2.15;;;1.27;;
61200;SDS011;47065;52.898;6.992;2022-08-05T08:58:41;3.88;;;0.73;;
61200;SDS011;47065;52.898;6.992;2022-08-05T09:01:07;3.15;;;0.70;;
61200;SDS011;47065;52.898;6.992;2022-08-05T09:03:34;3.80;;;1.00;;
61200;SDS011;47065;52.898;6.992;2022-08-05T09:06:00;2.33;;;1.15;;
61200;SDS011;47065;52.898;6.992;2022-08-05T09:08:26;2.90;;;1.08;;
61200;SDS011;47065;52.898;6.992;2022-08-05T09:10:52;6.63;;;0.90;;
61200;SDS011;47065;52.898;6.992;2022-08-05T09:13:17;1.45;;;0.77;;
61200;SDS011;47065;52.898;6.992;2022-08-05T09:15:44;2.17;;;0.82;;
61200;SDS011;47065;52.898;6.992;2022-08-05T09:18:10;4.03;;;0.93;;
61200;SDS011;47065;52.898;6.992;2022-08-05T09:20:36;1.92;;;0.95;;
61200;SDS011;47065;52.898;6.992;2022-08-05T09:23:12;5.10;;;0.98;;
61200;SDS011;47065;52.898;6.992;2022-08-05T09:25:40;1.23;;;0.68;;
61200;SDS011;47065;52.898;6.992;2022-08-05T09:28:17;2.63;;;0.75;;
61200;SDS011;47065;52.898;6.992;2022-08-05T09:30:57;1.67;;;0.60;;
61200;SDS011;47065;52.898;6.992;2022-08-05T09:33:30;2.63;;;0.60;;
61200;SDS011;47065;52.898;6.992;2022-08-05T09:35:56;3.20;;;0.60;;
61200;SDS011;47065;52.898;6.992;2022-08-05T09:38:25;0.68;;;0.40;;
61200;SDS011;47065;52.898;6.992;2022-08-05T09:40:52;1.73;;;0.40;;
61200;SDS011;47065;52.898;6.992;2022-08-05T09:43:51;1.27;;;0.40;;
61200;SDS011;47065;52.898;6.992;2022-08-05T09:46:26;0.55;;;0.43;;
61200;SDS011;47065;52.898;6.992;2022-08-05T09:48:54;1.90;;;0.50;;
61200;SDS011;47065;52.898;6.992;2022-08-05T09:51:31;0.90;;;0.50;;
61200;SDS011;47065;52.898;6.992;2022-08-05T09:54:02;1.38;;;0.60;;
61200;SDS011;47065;52.898;6.992;2022-08-05T09:56:32;1.45;;;0.90;;
61200;SDS011;47065;52.898;6.992;2022-08-05T09:59:02;1.92;;;0.50;;
61200;SDS011;47065;52.898;6.992;2022-08-05T10:01:33;2.33;;;0.60;;
61200;SDS011;47065;52.898;6.992;2022-08-05T10:04:05;2.60;;;0.50;;
61200;SDS011;47065;52.898;6.992;2022-08-05T10:06:41;2.90;;;0.70;;
61200;SDS011;47065;52.898;6.992;2022-08-05T10:09:17;2.00;;;0.80;;
61200;SDS011;47065;52.898;6.992;2022-08-05T10:11:45;1.77;;;0.60;;
61200;SDS011;47065;52.898;6.992;2022-08-05T10:14:25;2.15;;;0.57;;
61200;SDS011;47065;52.898;6.992;2022-08-05T10:16:53;1.92;;;0.55;;
61200;SDS011;47065;52.898;6.992;2022-08-05T10:19:23;2.63;;;0.60;;
61200;SDS011;47065;52.898;6.992;2022-08-05T10:21:50;0.50;;;0.47;;
61200;SDS011;47065;52.898;6.992;2022-08-05T10:24:16;1.75;;;0.30;;
61200;SDS011;47065;52.898;6.992;2022-08-05T10:26:43;1.55;;;0.90;;
61200;SDS011;47065;52.898;6.992;2022-08-05T10:29:10;1.88;;;0.55;;
61200;SDS011;47065;52.898;6.992;2022-08-05T10:31:36;3.33;;;0.50;;
61200;SDS011;47065;52.898;6.992;2022-08-05T10:34:04;1.10;;;0.45;;
61200;SDS011;47065;52.898;6.992;2022-08-05T10:36:31;3.78;;;0.50;;
61200;SDS011;47065;52.898;6.992;2022-08-05T10:38:58;2.65;;;0.50;;
61200;SDS011;47065;52.898;6.992;2022-08-05T10:41:30;4.95;;;0.52;;
61200;SDS011;47065;52.898;6.992;2022-08-05T10:44:07;1.75;;;0.55;;
61200;SDS011;47065;52.898;6.992;2022-08-05T10:46:44;6.80;;;0.52;;
61200;SDS011;47065;52.898;6.992;2022-08-05T10:49:11;3.05;;;0.47;;
61200;SDS011;47065;52.898;6.992;2022-08-05T10:51:44;1.13;;;0.40;;
61200;SDS011;47065;52.898;6.992;2022-08-05T10:54:16;1.10;;;0.40;;
61200;SDS011;47065;52.898;6.992;2022-08-05T10:56:49;3.13;;;0.35;;
61200;SDS011;47065;52.898;6.992;2022-08-05T10:59:24;1.50;;;0.40;;
61200;SDS011;47065;52.898;6.992;2022-08-05T11:02:07;2.97;;;0.47;;
61200;SDS011;47065;52.898;6.992;2022-08-05T11:07:10;1.58;;;0.38;;
61200;SDS011;47065;52.898;6.992;2022-08-05T11:09:46;1.85;;;0.80;;
61200;SDS011;47065;52.898;6.992;2022-08-05T11:15:04;1.35;;;0.22;;
61200;SDS011;47065;52.898;6.992;2022-08-05T11:17:31;0.98;;;0.30;;
61200;SDS011;47065;52.898;6.992;2022-08-05T11:20:05;0.35;;;0.25;;
61200;SDS011;47065;52.898;6.992;2022-08-05T11:22:51;1.00;;;0.60;;
61200;SDS011;47065;52.898;6.992;2022-08-05T11:41:14;0.52;;;0.30;;
61200;SDS011;47065;52.898;6.992;2022-08-05T11:43:47;0.30;;;0.10;;
61200;SDS011;47065;52.898;6.992;2022-08-05T11:46:26;1.55;;;0.20;;
61200;SDS011;47065;52.898;6.992;2022-08-05T11:48:53;1.30;;;0.20;;
61200;SDS011;47065;52.898;6.992;2022-08-05T11:51:19;3.22;;;0.20;;
61200;SDS011;47065;52.898;6.992;2022-08-05T11:53:46;2.50;;;1.27;;
61200;SDS011;47065;52.898;6.992;2022-08-05T11:56:13;0.57;;;0.20;;
61200;SDS011;47065;52.898;6.992;2022-08-05T11:58:39;3.72;;;0.22;;
61200;SDS011;47065;52.898;6.992;2022-08-05T12:01:08;0.85;;;0.20;;
61200;SDS011;47065;52.898;6.992;2022-08-05T12:06:18;2.03;;;0.20;;
61200;SDS011;47065;52.898;6.992;2022-08-05T12:08:47;2.53;;;0.28;;
61200;SDS011;47065;52.898;6.992;2022-08-05T12:11:18;0.20;;;0.20;;
61200;SDS011;47065;52.898;6.992;2022-08-05T12:16:17;1.38;;;0.10;;
61200;SDS011;47065;52.898;6.992;2022-08-05T12:18:43;3.95;;;0.45;;
61200;SDS011;47065;52.898;6.992;2022-08-05T12:21:10;1.83;;;0.22;;
61200;SDS011;47065;52.898;6.992;2022-08-05T12:23:37;0.17;;;0.10;;
61200;SDS011;47065;52.898;6.992;2022-08-05T12:26:03;1.45;;;0.50;;
61200;SDS011;47065;52.898;6.992;2022-08-05T12:28:36;1.15;;;0.10;;
61200;SDS011;47065;52.898;6.992;2022-08-05T12:31:02;2.13;;;0.10;;
61200;SDS011;47065;52.898;6.992;2022-08-05T12:33:28;1.52;;;0.28;;
61200;SDS011;47065;52.898;6.992;2022-08-05T12:35:55;0.45;;;0.28;;
61200;SDS011;47065;52.898;6.992;2022-08-05T12:38:21;2.40;;;0.30;;
61200;SDS011;47065;52.898;6.992;2022-08-05T12:40:47;1.75;;;0.50;;
61200;SDS011;47065;52.898;6.992;2022-08-05T12:43:14;2.72;;;0.50;;
61200;SDS011;47065;52.898;6.992;2022-08-05T12:45:52;0.90;;;0.13;;
61200;SDS011;47065;52.898;6.992;2022-08-05T12:48:20;3.17;;;0.40;;
61200;SDS011;47065;52.898;6.992;2022-08-05T12:51:08;2.92;;;0.30;;
61200;SDS011;47065;52.898;6.992;2022-08-05T12:53:33;2.63;;;0.45;;
61200;SDS011;47065;52.898;6.992;2022-08-05T12:56:14;2.00;;;0.40;;
61200;SDS011;47065;52.898;6.992;2022-08-05T13:01:39;0.55;;;0.28;;
61200;SDS011;47065;52.898;6.992;2022-08-05T13:04:06;3.22;;;0.50;;
61200;SDS011;47065;52.898;6.992;2022-08-05T13:06:32;1.65;;;0.20;;
61200;SDS011;47065;52.898;6.992;2022-08-05T13:09:06;1.35;;;0.30;;
61200;SDS011;47065;52.898;6.992;2022-08-05T13:11:33;0.40;;;0.40;;
61200;SDS011;47065;52.898;6.992;2022-08-05T13:14:08;0.95;;;0.75;;
61200;SDS011;47065;52.898;6.992;2022-08-05T13:16:45;2.85;;;0.50;;
61200;SDS011;47065;52.898;6.992;2022-08-05T13:19:12;2.63;;;0.28;;
61200;SDS011;47065;52.898;6.992;2022-08-05T13:21:38;2.15;;;0.30;;
61200;SDS011;47065;52.898;6.992;2022-08-05T13:24:05;5.32;;;1.17;;
61200;SDS011;47065;52.898;6.992;2022-08-05T13:26:30;7.20;;;0.45;;
61200;SDS011;47065;52.898;6.992;2022-08-05T13:28:56;0.47;;;0.35;;
61200;SDS011;47065;52.898;6.992;2022-08-05T13:31:22;1.50;;;0.40;;
61200;SDS011;47065;52.898;6.992;2022-08-05T13:33:48;0.57;;;0.30;;
61200;SDS011;47065;52.898;6.992;2022-08-05T13:36:13;2.13;;;0.40;;
61200;SDS011;47065;52.898;6.992;2022-08-05T13:38:39;2.78;;;0.52;;
61200;SDS011;47065;52.898;6.992;2022-08-05T13:41:05;2.50;;;0.80;;
61200;SDS011;47065;52.898;6.992;2022-08-05T13:43:31;1.35;;;0.30;;
61200;SDS011;47065;52.898;6.992;2022-08-05T13:45:56;0.90;;;0.20;;
61200;SDS011;47065;52.898;6.992;2022-08-05T13:48:22;2.42;;;1.30;;
61200;SDS011;47065;52.898;6.992;2022-08-05T13:50:48;1.60;;;0.40;;
61200;SDS011;47065;52.898;6.992;2022-08-05T13:53:13;1.25;;;0.80;;
61200;SDS011;47065;52.898;6.992;2022-08-05T13:55:39;2.28;;;0.52;;
61200;SDS011;47065;52.898;6.992;2022-08-05T13:58:04;0.20;;;0.20;;
61200;SDS011;47065;52.898;6.992;2022-08-05T14:00:30;0.30;;;0.30;;
61200;SDS011;47065;52.898;6.992;2022-08-05T14:02:56;2.28;;;0.40;;
61200;SDS011;47065;52.898;6.992;2022-08-05T14:05:21;1.55;;;0.70;;
61200;SDS011;47065;52.898;6.992;2022-08-05T14:07:47;0.90;;;0.50;;
61200;SDS011;47065;52.898;6.992;2022-08-05T14:10:14;1.88;;;0.65;;
61200;SDS011;47065;52.898;6.992;2022-08-05T14:12:43;1.60;;;0.30;;
61200;SDS011;47065;52.898;6.992;2022-08-05T14:15:09;2.67;;;0.30;;
61200;SDS011;47065;52.898;6.992;2022-08-05T14:17:36;0.30;;;0.10;;
61200;SDS011;47065;52.898;6.992;2022-08-05T14:20:02;2.58;;;0.35;;
61200;SDS011;47065;52.898;6.992;2022-08-05T14:22:30;3.33;;;0.35;;
61200;SDS011;47065;52.898;6.992;2022-08-05T14:24:55;2.40;;;0.30;;
61200;SDS011;47065;52.898;6.992;2022-08-05T14:27:21;0.55;;;0.20;;
61200;SDS011;47065;52.898;6.992;2022-08-05T14:29:47;0.45;;;0.20;;
61200;SDS011;47065;52.898;6.992;2022-08-05T14:32:14;1.83;;;0.30;;
61200;SDS011;47065;52.898;6.992;2022-08-05T14:34:40;5.63;;;0.30;;
61200;SDS011;47065;52.898;6.992;2022-08-05T14:37:06;2.13;;;0.77;;
61200;SDS011;47065;52.898;6.992;2022-08-05T14:39:32;2.03;;;0.28;;
61200;SDS011;47065;52.898;6.992;2022-08-05T14:41:58;0.40;;;0.40;;
61200;SDS011;47065;52.898;6.992;2022-08-05T14:44:24;1.08;;;0.15;;
61200;SDS011;47065;52.898;6.992;2022-08-05T14:46:49;4.90;;;0.57;;
61200;SDS011;47065;52.898;6.992;2022-08-05T14:49:15;1.67;;;0.20;;
61200;SDS011;47065;52.898;6.992;2022-08-05T14:51:41;1.40;;;0.20;;
61200;SDS011;47065;52.898;6.992;2022-08-05T14:54:06;0.20;;;0.20;;
61200;SDS011;47065;52.898;6.992;2022-08-05T14:56:33;0.03;;;0.03;;
61200;SDS011;47065;52.898;6.992;2022-08-05T14:58:59;0.75;;;0.35;;
61200;SDS011;47065;52.898;6.992;2022-08-05T15:01:25;2.70;;;0.17;;
61200;SDS011;47065;52.898;6.992;2022-08-05T15:03:51;0.90;;;0.20;;
61200;SDS011;47065;52.898;6.992;2022-08-05T15:06:17;0.20;;;0.20;;
61200;SDS011;47065;52.898;6.992;2022-08-05T15:08:43;2.30;;;0.50;;
61200;SDS011;47065;52.898;6.992;2022-08-05T15:11:08;0.63;;;0.32;;
61200;SDS011;47065;52.898;6.992;2022-08-05T15:13:34;1.42;;;0.20;;
61200;SDS011;47065;52.898;6.992;2022-08-05T15:16:00;0.35;;;0.10;;
61200;SDS011;47065;52.898;6.992;2022-08-05T15:18:26;4.13;;;0.85;;
61200;SDS011;47065;52.898;6.992;2022-08-05T15:20:51;4.18;;;0.50;;
61200;SDS011;47065;52.898;6.992;2022-08-05T15:23:17;2.40;;;0.40;;
61200;SDS011;47065;52.898;6.992;2022-08-05T15:25:43;0.45;;;0.15;;